TimeEDT,TemperatureF,Dew PointF,Humidity,Sea Level PressureIn,VisibilityMPH,Wind Direction,Wind SpeedMPH,Gust SpeedMPH,PrecipitationIn,Events,Conditions,WindDirDegrees,DateUTC
12:15 AM,33.8,30.2,87,29.95,10.0,WNW,3.5,-,N/A,,Clear,290,2013-05-11 04:15:00
12:35 AM,33.8,28.4,81,29.94,10.0,West,3.5,-,N/A,,Clear,280,2013-05-11 04:35:00
12:55 AM,33.8,30.2,87,29.94,10.0,Calm,Calm,-,N/A,,Clear,0,2013-05-11 04:55:00
1:15 AM,33.8,30.2,87,29.93,8.0,Calm,Calm,-,N/A,,Clear,0,2013-05-11 05:15:00
1:35 AM,32.0,28.4,87,29.93,3.0,Calm,Calm,-,N/A,,Clear,0,2013-05-11 05:35:00
1:55 AM,30.2,28.4,93,29.92,4.0,Calm,Calm,-,N/A,,Clear,0,2013-05-11 05:55:00
2:15 AM,30.2,28.4,93,29.91,7.0,Calm,Calm,-,N/A,,Clear,0,2013-05-11 06:15:00
2:35 AM,30.2,26.6,86,29.90,9.0,Calm,Calm,-,N/A,,Clear,0,2013-05-11 06:35:00
2:55 AM,30.2,26.6,86,29.89,7.0,Calm,Calm,-,N/A,,Clear,0,2013-05-11 06:55:00
3:15 AM,30.2,28.4,93,29.89,9.0,Calm,Calm,-,N/A,,Clear,0,2013-05-11 07:15:00
3:35 AM,30.2,28.4,93,29.87,8.0,Calm,Calm,-,N/A,,Clear,0,2013-05-11 07:35:00
3:55 AM,30.2,28.4,93,29.87,8.0,Calm,Calm,-,N/A,,Clear,0,2013-05-11 07:55:00
4:15 AM,30.2,28.4,93,29.86,8.0,Calm,Calm,-,N/A,,Clear,0,2013-05-11 08:15:00
4:35 AM,30.2,28.4,93,29.84,9.0,Calm,Calm,-,N/A,,Scattered Clouds,0,2013-05-11 08:35:00
4:55 AM,32.0,28.4,87,29.82,10.0,Calm,Calm,-,N/A,,Mostly Cloudy,0,2013-05-11 08:55:00
5:15 AM,32.0,28.4,87,29.81,10.0,Calm,Calm,-,N/A,,Mostly Cloudy,0,2013-05-11 09:15:00
5:35 AM,32.0,28.4,87,29.81,10.0,WNW,3.5,-,N/A,,Mostly Cloudy,290,2013-05-11 09:35:00
5:55 AM,33.8,30.2,87,29.80,10.0,WNW,5.8,-,N/A,,Overcast,300,2013-05-11 09:55:00
6:15 AM,33.8,30.2,87,29.79,10.0,Calm,Calm,-,N/A,,Overcast,0,2013-05-11 10:15:00
6:35 AM,35.6,32.0,87,29.79,10.0,Calm,Calm,-,N/A,,Overcast,0,2013-05-11 10:35:00
6:55 AM,37.4,33.8,87,29.79,10.0,West,4.6,-,N/A,,Overcast,270,2013-05-11 10:55:00
7:15 AM,37.4,33.8,87,29.79,10.0,Calm,Calm,-,N/A,,Overcast,0,2013-05-11 11:15:00
7:35 AM,37.4,33.8,87,29.80,10.0,Calm,Calm,-,N/A,,Overcast,0,2013-05-11 11:35:00
7:55 AM,37.4,35.6,93,29.80,9.0,NW,3.5,-,N/A,,Overcast,320,2013-05-11 11:55:00
8:15 AM,39.2,35.6,87,29.78,10.0,Calm,Calm,-,N/A,,Overcast,0,2013-05-11 12:15:00
8:35 AM,39.2,35.6,87,29.78,10.0,South,3.5,-,N/A,,Overcast,180,2013-05-11 12:35:00
8:55 AM,41.0,35.6,81,29.77,10.0,South,3.5,-,0.01,,Overcast,190,2013-05-11 12:55:00
9:15 AM,41.0,35.6,81,29.77,5.0,SW,3.5,-,N/A,,Overcast,230,2013-05-11 13:15:00
9:35 AM,41.0,37.4,87,29.76,7.0,WNW,6.9,-,0.01,,Overcast,290,2013-05-11 13:35:00
9:55 AM,39.2,35.6,87,29.77,7.0,WNW,5.8,-,0.03,,Overcast,290,2013-05-11 13:55:00
10:15 AM,41.0,37.4,87,29.77,9.0,NW,6.9,-,0.03,,Overcast,310,2013-05-11 14:15:00
10:35 AM,39.2,33.8,81,29.77,10.0,NW,13.8,19.6,0.05,,Overcast,310,2013-05-11 14:35:00
10:55 AM,35.6,32.0,87,29.78,10.0,NW,10.4,16.1,0.05,,Overcast,320,2013-05-11 14:55:00
11:15 AM,35.6,30.2,81,29.77,6.0,NNW,10.4,17.3,0.02,,Overcast,330,2013-05-11 15:15:00
11:35 AM,35.6,30.2,81,29.78,7.0,NW,10.4,18.4,0.03,,Overcast,320,2013-05-11 15:35:00
11:55 AM,35.6,32.0,87,29.78,9.0,NW,12.7,19.6,0.03,,Overcast,320,2013-05-11 15:55:00
12:15 PM,35.6,32.0,87,29.79,7.0,NW,11.5,-,N/A,,Overcast,310,2013-05-11 16:15:00
12:35 PM,35.6,32.0,87,29.79,10.0,NNW,11.5,16.1,N/A,,Overcast,330,2013-05-11 16:35:00
12:55 PM,37.4,33.8,87,29.80,10.0,NNW,9.2,-,N/A,,Mostly Cloudy,330,2013-05-11 16:55:00
1:15 PM,39.2,33.8,81,29.80,10.0,NW,10.4,16.1,N/A,,Overcast,310,2013-05-11 17:15:00
1:35 PM,39.2,33.8,81,29.79,10.0,NW,10.4,21.9,N/A,,Overcast,320,2013-05-11 17:35:00
1:55 PM,42.8,30.2,61,29.79,10.0,NNW,17.3,25.3,N/A,,Overcast,330,2013-05-11 17:55:00
2:15 PM,42.8,30.2,61,29.80,10.0,NW,18.4,26.5,N/A,,Mostly Cloudy,320,2013-05-11 18:15:00
2:35 PM,42.8,32.0,66,29.80,10.0,NNW,10.4,19.6,N/A,,Overcast,330,2013-05-11 18:35:00
2:55 PM,44.6,30.2,57,29.80,10.0,NW,16.1,29.9,N/A,,Overcast,310,2013-05-11 18:55:00
3:15 PM,46.4,28.4,50,29.80,10.0,NW,18.4,26.5,N/A,,Overcast,310,2013-05-11 19:15:00
3:35 PM,46.4,26.6,46,29.80,10.0,NNW,15.0,25.3,N/A,,Overcast,330,2013-05-11 19:35:00
3:55 PM,46.4,26.6,46,29.80,10.0,NW,15.0,24.2,N/A,,Overcast,310,2013-05-11 19:55:00
4:15 PM,46.4,26.6,46,29.79,10.0,WNW,20.7,28.8,N/A,,Overcast,300,2013-05-11 20:15:00
4:35 PM,46.4,24.8,43,29.81,10.0,NW,16.1,24.2,N/A,,Overcast,320,2013-05-11 20:35:00
4:55 PM,46.4,24.8,43,29.81,10.0,NW,18.4,27.6,N/A,,Overcast,320,2013-05-11 20:55:00
5:15 PM,44.6,24.8,46,29.81,10.0,WNW,15.0,27.6,N/A,,Overcast,300,2013-05-11 21:15:00
5:35 PM,46.4,24.8,43,29.81,10.0,NW,13.8,21.9,N/A,,Overcast,310,2013-05-11 21:35:00
5:55 PM,44.6,23.0,43,29.82,10.0,NW,17.3,26.5,N/A,,Overcast,310,2013-05-11 21:55:00
6:15 PM,46.4,23.0,40,29.81,10.0,WNW,18.4,24.2,N/A,,Overcast,300,2013-05-11 22:15:00
6:35 PM,46.4,24.8,43,29.81,10.0,WNW,17.3,27.6,N/A,,Overcast,300,2013-05-11 22:35:00
6:55 PM,46.4,23.0,40,29.82,10.0,WNW,11.5,21.9,N/A,,Mostly Cloudy,300,2013-05-11 22:55:00
7:15 PM,46.4,24.8,43,29.82,10.0,NW,13.8,23.0,N/A,,Mostly Cloudy,310,2013-05-11 23:15:00
7:35 PM,46.4,24.8,43,29.81,10.0,WNW,19.6,24.2,N/A,,Scattered Clouds,300,2013-05-11 23:35:00
7:55 PM,44.6,24.8,46,29.81,10.0,WNW,17.3,24.2,N/A,,Scattered Clouds,300,2013-05-11 23:55:00
8:15 PM,44.6,23.0,43,29.82,10.0,WNW,21.9,31.1,N/A,,Scattered Clouds,300,2013-05-12 00:15:00
8:35 PM,41.0,26.6,57,29.83,10.0,WNW,16.1,31.1,N/A,,Scattered Clouds,300,2013-05-12 00:35:00
8:55 PM,39.2,26.6,61,29.84,10.0,WNW,11.5,20.7,N/A,,Scattered Clouds,300,2013-05-12 00:55:00
9:15 PM,39.2,26.6,61,29.84,10.0,WNW,15.0,23.0,N/A,,Mostly Cloudy,300,2013-05-12 01:15:00
9:35 PM,39.2,26.6,61,29.84,10.0,WNW,19.6,27.6,N/A,,Scattered Clouds,290,2013-05-12 01:35:00
10:15 PM,37.4,26.6,65,29.84,10.0,WNW,15.0,20.7,N/A,,Partly Cloudy,300,2013-05-12 02:15:00
10:35 PM,37.4,26.6,65,29.85,10.0,WNW,11.5,18.4,N/A,,Scattered Clouds,300,2013-05-12 02:35:00
10:55 PM,37.4,26.6,65,29.84,10.0,WNW,15.0,18.4,N/A,,Overcast,300,2013-05-12 02:55:00
11:15 PM,37.4,26.6,65,29.84,10.0,WNW,16.1,21.9,N/A,,Mostly Cloudy,300,2013-05-12 03:15:00
11:35 PM,35.6,26.6,70,29.84,10.0,WNW,16.1,25.3,N/A,,Overcast,300,2013-05-12 03:35:00
11:55 PM,35.6,28.4,75,29.85,10.0,WNW,13.8,21.9,N/A,,Mostly Cloudy,300,2013-05-12 03:55:00